Time;durP1;ratioP1;P1;durP2;ratioP2;P2;SDS_P1;SDS_P2;PMS_P1;PMS_P2;Temp;Humidity;BMP_temperature;BMP_pressure;BME280_temperature;BME280_humidity;BME280_pressure;Samples;Min_cycle;Max_cycle;Signal;HPM_P1;HPM_P2
2022/05/15 00:00:43;;;;;;;6.20;4.65;;;;;;;14.30;100.00;91130.66;5011158;28;20514;-64
2022/05/15 00:03:18;;;;;;;7.30;4.68;;;;;;;14.33;100.00;91128.13;5011272;28;20514;-64
2022/05/15 00:05:44;;;;;;;5.95;3.95;;;;;;;14.28;100.00;91130.22;5010917;28;20044;-64
2022/05/15 00:08:11;;;;;;;6.28;4.32;;;;;;;14.24;100.00;91138.13;5010963;28;20392;-65
2022/05/15 00:10:41;;;;;;;5.28;3.85;;;;;;;14.22;100.00;91132.31;5010909;28;20052;-64
2022/05/15 00:13:07;;;;;;;8.85;4.22;;;;;;;14.15;100.00;91125.91;5011101;28;20087;-65
2022/05/15 00:15:34;;;;;;;6.20;4.47;;;;;;;14.14;100.00;91127.78;5010820;28;20023;-65
2022/05/15 00:18:00;;;;;;;5.80;4.90;;;;;;;14.09;100.00;91126.09;5010739;28;20109;-65
2022/05/15 00:20:25;;;;;;;7.00;4.63;;;;;;;14.03;100.00;91127.38;5010763;28;20165;-65
2022/05/15 00:22:51;;;;;;;5.10;4.20;;;;;;;14.00;100.00;91132.59;5013644;28;20029;-65
2022/05/15 00:25:16;;;;;;;5.55;4.18;;;;;;;14.05;100.00;91133.22;5014269;28;20081;-65
2022/05/15 00:27:42;;;;;;;5.53;4.10;;;;;;;14.05;100.00;91127.84;5014251;28;20029;-66
2022/05/15 00:30:09;;;;;;;5.68;4.15;;;;;;;14.16;100.00;91130.13;5014144;28;20025;-65
2022/05/15 00:32:34;;;;;;;6.88;4.28;;;;;;;14.23;100.00;91130.41;5014090;28;20546;-65
2022/05/15 00:34:59;;;;;;;6.03;4.18;;;;;;;14.26;100.00;91130.53;5014144;28;20041;-65
2022/05/15 00:37:25;;;;;;;5.97;3.75;;;;;;;14.33;100.00;91127.34;5013908;28;20029;-64
2022/05/15 00:39:50;;;;;;;6.10;4.43;;;;;;;14.32;100.00;91126.56;5014068;28;20022;-64
2022/05/15 00:42:16;;;;;;;4.95;3.88;;;;;;;14.25;100.00;91128.97;5014010;28;20029;-64
2022/05/15 00:44:42;;;;;;;7.93;4.50;;;;;;;14.16;100.00;91128.25;5013941;28;20028;-64
2022/05/15 00:47:07;;;;;;;6.13;4.30;;;;;;;14.17;100.00;91116.44;5013815;28;20729;-64
2022/05/15 00:49:34;;;;;;;5.53;4.55;;;;;;;14.15;100.00;91128.56;5013609;28;20057;-64
2022/05/15 00:52:04;;;;;;;6.65;4.40;;;;;;;14.02;100.00;91127.69;5013849;28;20072;-64
2022/05/15 00:54:34;;;;;;;5.38;4.13;;;;;;;13.96;100.00;91127.13;5013726;28;20469;-64
2022/05/15 00:57:08;;;;;;;5.40;4.43;;;;;;;13.91;100.00;91131.88;5013754;28;20407;-64
2022/05/15 00:59:40;;;;;;;5.32;4.35;;;;;;;13.85;100.00;91123.22;5013605;28;20022;-64
2022/05/15 01:02:08;;;;;;;5.47;4.20;;;;;;;13.83;100.00;91125.44;5013859;28;20034;-64
2022/05/15 01:04:34;;;;;;;6.80;4.55;;;;;;;13.91;100.00;91127.31;5013184;28;20111;-64
2022/05/15 01:07:01;;;;;;;5.85;4.20;;;;;;;13.89;100.00;91131.41;5013424;28;20385;-64
2022/05/15 01:09:28;;;;;;;4.25;3.60;;;;;;;13.91;100.00;91129.97;5013447;28;20033;-64
2022/05/15 01:11:55;;;;;;;4.70;3.70;;;;;;;13.89;100.00;91129.53;5013339;28;20539;-64
2022/05/15 01:14:22;;;;;;;5.88;3.78;;;;;;;13.78;100.00;91117.63;5013387;28;20121;-64
2022/05/15 01:16:48;;;;;;;4.03;3.38;;;;;;;13.90;100.00;91128.41;5013091;28;20523;-64
2022/05/15 01:19:14;;;;;;;5.82;3.83;;;;;;;13.91;100.00;91123.84;5013235;28;20026;-64
2022/05/15 01:21:55;;;;;;;5.47;3.63;;;;;;;13.97;100.00;91126.00;5013187;28;20124;-64
2022/05/15 01:24:21;;;;;;;6.15;3.55;;;;;;;13.95;100.00;91130.13;5013113;28;20532;-64
2022/05/15 01:26:47;;;;;;;4.85;3.80;;;;;;;14.00;100.00;91122.69;5013318;28;20029;-64
2022/05/15 01:29:13;;;;;;;5.05;3.78;;;;;;;13.98;100.00;91122.22;5013063;28;20037;-64
2022/05/15 01:31:39;;;;;;;5.68;4.10;;;;;;;14.03;100.00;91121.25;5013079;28;20436;-64
2022/05/15 01:34:09;;;;;;;8.35;3.90;;;;;;;14.03;100.00;91127.38;5012743;28;20030;-64
2022/05/15 01:36:36;;;;;;;4.07;3.67;;;;;;;13.99;100.00;91121.13;5012733;28;20113;-64
2022/05/15 01:39:03;;;;;;;6.88;4.13;;;;;;;13.87;100.00;91134.38;5012918;28;20114;-64
2022/05/15 01:41:29;;;;;;;5.72;4.50;;;;;;;13.67;100.00;91132.47;5012796;28;20064;-64
2022/05/15 01:43:54;;;;;;;5.78;4.40;;;;;;;13.51;100.00;91134.88;5012840;28;20038;-64
2022/05/15 01:46:22;;;;;;;6.65;3.63;;;;;;;13.47;100.00;91118.72;5012631;28;20118;-64
2022/05/15 01:48:49;;;;;;;4.45;3.90;;;;;;;13.41;100.00;91129.88;5012534;28;20531;-65
2022/05/15 01:51:15;;;;;;;7.60;4.65;;;;;;;13.45;100.00;91134.28;5012696;28;20059;-64
2022/05/15 01:53:41;;;;;;;6.38;4.18;;;;;;;13.41;100.00;91136.03;5012615;28;20034;-64
2022/05/15 01:56:06;;;;;;;9.73;6.93;;;;;;;13.43;100.00;91136.50;5012456;28;20466;-64
2022/05/15 01:58:33;;;;;;;5.88;4.38;;;;;;;13.33;100.00;91130.72;5012508;28;20034;-64
2022/05/15 02:00:59;;;;;;;5.57;3.83;;;;;;;13.26;100.00;91130.44;5012549;28;20029;-66
2022/05/15 02:03:25;;;;;;;4.53;3.88;;;;;;;13.24;100.00;91133.41;5012477;28;20060;-64
2022/05/15 02:05:50;;;;;;;4.28;3.65;;;;;;;13.15;100.00;91135.28;5012643;28;20026;-63
2022/05/15 02:08:18;;;;;;;5.25;4.22;;;;;;;13.10;100.00;91132.81;5012631;28;20511;-64
2022/05/15 02:10:44;;;;;;;6.28;4.40;;;;;;;13.01;100.00;91132.81;5012563;28;20411;-63
2022/05/15 02:13:10;;;;;;;4.03;3.30;;;;;;;13.00;100.00;91136.59;5012565;28;20389;-63
2022/05/15 02:15:35;;;;;;;8.10;4.10;;;;;;;12.95;100.00;91136.75;5012096;28;20498;-65
2022/05/15 02:18:02;;;;;;;4.63;3.83;;;;;;;12.96;100.00;91129.53;5012092;28;20084;-64
2022/05/15 02:20:28;;;;;;;6.90;4.88;;;;;;;13.03;100.00;91135.94;5012198;28;20026;-64
2022/05/15 02:22:53;;;;;;;4.80;3.60;;;;;;;13.01;100.00;91127.47;5012152;28;20038;-64
2022/05/15 02:25:19;;;;;;;4.22;3.75;;;;;;;13.00;100.00;91141.94;5012029;28;20077;-64
2022/05/15 02:27:46;;;;;;;6.88;3.92;;;;;;;12.98;100.00;91138.00;5012112;28;20030;-66
2022/05/15 02:30:13;;;;;;;6.18;3.75;;;;;;;12.94;100.00;91135.19;5011941;28;20480;-66
2022/05/15 02:32:39;;;;;;;8.00;3.70;;;;;;;12.85;100.00;91151.22;5012031;28;20061;-66
2022/05/15 02:35:05;;;;;;;4.60;3.90;;;;;;;12.80;100.00;91150.59;5011786;28;20080;-66
2022/05/15 02:37:31;;;;;;;5.32;4.10;;;;;;;12.74;100.00;91152.63;5011840;28;20030;-66
2022/05/15 02:39:56;;;;;;;4.68;3.42;;;;;;;12.67;100.00;91147.00;5011904;28;20400;-66
2022/05/15 02:42:22;;;;;;;3.92;3.50;;;;;;;12.66;100.00;91158.78;5011871;28;20033;-66
2022/05/15 02:44:47;;;;;;;4.07;3.42;;;;;;;12.51;100.00;91154.69;5011185;28;20088;-65
2022/05/15 02:47:13;;;;;;;6.00;4.25;;;;;;;12.50;100.00;91160.34;5011695;28;20034;-65
2022/05/15 02:52:22;;;;;;;5.43;3.72;;;;;;;12.36;100.00;91155.16;5011901;28;20113;-65
2022/05/15 02:54:47;;;;;;;4.75;3.70;;;;;;;12.38;100.00;91163.63;5011624;28;20431;-65
2022/05/15 02:57:13;;;;;;;5.10;3.85;;;;;;;12.31;100.00;91155.31;5011484;28;20030;-65
2022/05/15 02:59:39;;;;;;;3.85;3.30;;;;;;;12.28;100.00;91166.59;5010741;28;20088;-65
2022/05/15 03:02:05;;;;;;;5.43;3.72;;;;;;;12.26;100.00;91166.13;5011687;28;20520;-66
2022/05/15 03:04:32;;;;;;;4.05;3.42;;;;;;;12.25;100.00;91164.56;5010445;28;20072;-66
2022/05/15 03:06:59;;;;;;;3.67;3.33;;;;;;;12.20;100.00;91165.50;5011832;28;20025;-66
2022/05/15 03:09:24;;;;;;;3.58;3.00;;;;;;;12.24;100.00;91171.00;5011527;28;20041;-66
2022/05/15 03:11:50;;;;;;;4.38;3.17;;;;;;;12.27;100.00;91171.16;5011553;28;20030;-68
2022/05/15 03:14:15;;;;;;;4.45;3.33;;;;;;;12.23;100.00;91175.53;5010074;28;20065;-67
2022/05/15 03:16:41;;;;;;;5.40;2.90;;;;;;;12.19;100.00;91173.81;5010870;28;20023;-67
2022/05/15 03:19:06;;;;;;;5.40;2.88;;;;;;;12.09;100.00;91168.78;5011320;28;20034;-66
2022/05/15 03:21:32;;;;;;;3.53;3.22;;;;;;;12.08;100.00;91177.88;5011391;28;20518;-68
2022/05/15 03:24:07;;;;;;;3.38;2.88;;;;;;;12.01;100.00;91178.34;5011356;28;20109;-68
2022/05/15 03:26:35;;;;;;;4.18;3.28;;;;;;;11.99;100.00;91185.84;5011133;28;20029;-67
2022/05/15 03:29:01;;;;;;;3.95;3.30;;;;;;;11.90;100.00;91179.72;5011549;28;20034;-66
2022/05/15 03:31:27;;;;;;;6.60;3.65;;;;;;;11.91;100.00;91181.28;5010705;28;20026;-66
2022/05/15 03:33:52;;;;;;;3.38;3.08;;;;;;;11.94;100.00;91181.44;5000148;28;20105;-66
2022/05/15 03:36:18;;;;;;;4.90;2.95;;;;;;;11.97;100.00;91182.69;5010007;28;20507;-66
2022/05/15 03:38:45;;;;;;;6.13;3.35;;;;;;;12.07;100.00;91182.41;5011270;28;20030;-66
2022/05/15 03:41:13;;;;;;;3.83;3.20;;;;;;;12.06;100.00;91180.84;5011225;28;20061;-66
2022/05/15 03:43:39;;;;;;;3.90;3.35;;;;;;;12.09;100.00;91188.22;5011138;28;20022;-66
2022/05/15 03:46:05;;;;;;;6.22;3.55;;;;;;;12.15;100.00;91184.34;5011065;28;20033;-66
2022/05/15 03:48:31;;;;;;;4.20;3.47;;;;;;;12.23;100.00;91186.22;5011078;28;20121;-66
2022/05/15 03:50:57;;;;;;;4.03;3.22;;;;;;;12.35;100.00;91180.28;5010887;28;20104;-66
2022/05/15 03:53:24;;;;;;;3.63;2.92;;;;;;;12.49;100.00;91183.59;5011062;28;20481;-66
2022/05/15 03:55:51;;;;;;;4.38;3.00;;;;;;;12.52;100.00;91182.16;5011842;28;20095;-66
2022/05/15 03:58:17;;;;;;;6.93;3.72;;;;;;;12.46;100.00;91180.72;5014985;28;20061;-66
2022/05/15 04:00:42;;;;;;;4.53;3.30;;;;;;;12.50;100.00;91200.38;5014710;28;20451;-66
2022/05/15 04:03:08;;;;;;;5.80;3.70;;;;;;;12.47;100.00;91193.00;5014686;28;20037;-66
2022/05/15 04:05:33;;;;;;;6.25;3.92;;;;;;;12.41;100.00;91186.22;5013270;28;20057;-66
2022/05/15 04:07:59;;;;;;;5.32;3.80;;;;;;;12.44;100.00;91190.94;5014524;28;20105;-66
2022/05/15 04:10:26;;;;;;;3.90;3.25;;;;;;;12.50;100.00;91190.50;5014525;28;20415;-66
2022/05/15 04:12:51;;;;;;;4.30;2.97;;;;;;;12.53;100.00;91189.06;5014677;28;20030;-66
2022/05/15 04:15:18;;;;;;;4.18;3.25;;;;;;;12.65;100.00;91191.91;5014449;28;20030;-66
2022/05/15 04:17:47;;;;;;;5.82;3.15;;;;;;;12.80;100.00;91194.09;5014380;28;20095;-66
2022/05/15 04:20:15;;;;;;;3.88;3.38;;;;;;;12.81;100.00;91190.34;5014430;28;20034;-66
2022/05/15 04:22:41;;;;;;;4.88;3.15;;;;;;;12.86;100.00;91192.84;5014418;28;20033;-66
2022/05/15 04:25:08;;;;;;;4.10;3.28;;;;;;;13.03;100.00;91188.56;5014288;28;20030;-66
2022/05/15 04:27:33;;;;;;;3.40;3.05;;;;;;;13.17;100.00;91197.19;5014217;28;20500;-66
2022/05/15 04:29:59;;;;;;;3.45;3.05;;;;;;;13.20;100.00;91196.59;5014321;28;20048;-66
2022/05/15 04:32:24;;;;;;;3.00;2.70;;;;;;;13.38;100.00;91198.13;5014121;28;20076;-66
2022/05/15 04:34:50;;;;;;;4.50;3.13;;;;;;;13.58;100.00;91198.56;5014118;28;20038;-67
2022/05/15 04:37:15;;;;;;;4.53;3.15;;;;;;;13.72;100.00;91205.25;5013967;28;20157;-67
2022/05/15 04:39:41;;;;;;;4.03;2.92;;;;;;;13.93;100.00;91197.31;5014103;28;20025;-66
2022/05/15 04:42:08;;;;;;;7.05;3.38;;;;;;;14.13;100.00;91197.69;5014265;28;20034;-66
2022/05/15 04:44:33;;;;;;;6.18;3.70;;;;;;;14.22;100.00;91190.41;5013864;28;20030;-66
2022/05/15 04:46:59;;;;;;;4.93;3.63;;;;;;;14.34;100.00;91195.81;5013833;28;20397;-66
2022/05/15 04:49:24;;;;;;;3.20;2.80;;;;;;;14.43;100.00;91193.09;5013676;28;20072;-66
2022/05/15 04:51:50;;;;;;;4.25;3.00;;;;;;;14.49;100.00;91199.84;5013820;28;20026;-66
2022/05/15 04:54:15;;;;;;;3.28;2.90;;;;;;;14.49;100.00;91200.63;5013780;28;20030;-66
2022/05/15 04:56:41;;;;;;;4.63;3.13;;;;;;;14.61;100.00;91200.72;5013529;28;20025;-66
2022/05/15 04:59:06;;;;;;;5.55;3.13;;;;;;;14.86;100.00;91201.63;5013750;28;20113;-66
2022/05/15 05:01:32;;;;;;;4.07;3.20;;;;;;;14.85;100.00;91205.44;5013583;28;20503;-66
2022/05/15 05:03:58;;;;;;;6.68;4.30;;;;;;;14.98;100.00;91192.84;5013595;28;20030;-66
2022/05/15 05:06:25;;;;;;;9.35;5.35;;;;;;;15.04;100.00;91201.50;5013475;28;20451;-66
2022/05/15 05:08:51;;;;;;;3.88;3.35;;;;;;;15.14;100.00;91196.50;5012821;28;20036;-66
2022/05/15 05:11:17;;;;;;;3.30;2.78;;;;;;;15.36;100.00;91194.56;5013431;28;20595;-66
2022/05/15 05:13:43;;;;;;;3.25;2.55;;;;;;;15.64;100.00;91184.84;5013428;28;20045;-66
2022/05/15 05:16:09;;;;;;;3.53;3.00;;;;;;;15.86;100.00;91195.16;5013174;28;20087;-67
2022/05/15 05:18:35;;;;;;;3.53;3.03;;;;;;;16.25;100.00;91192.13;5013233;28;20156;-66
2022/05/15 05:21:01;;;;;;;3.05;2.75;;;;;;;18.25;100.00;91189.28;5013259;28;20108;-66
2022/05/15 05:23:26;;;;;;;4.53;2.58;;;;;;;21.32;73.99;91195.78;5013123;28;20038;-66
2022/05/15 05:25:52;;;;;;;8.35;3.25;;;;;;;23.05;64.53;91188.94;5013024;28;20504;-66
2022/05/15 05:28:17;;;;;;;3.53;3.05;;;;;;;23.90;58.61;91195.53;5013111;28;20073;-66
2022/05/15 05:30:43;;;;;;;2.97;2.75;;;;;;;26.72;51.32;91209.47;5012979;28;20104;-66
2022/05/15 05:33:09;;;;;;;5.10;2.35;;;;;;;28.63;45.04;91211.34;5012548;28;20026;-64
2022/05/15 05:35:37;;;;;;;6.03;3.80;;;;;;;29.87;42.69;91205.03;5012884;28;20032;-64
2022/05/15 05:38:03;;;;;;;2.80;2.40;;;;;;;30.08;41.18;91212.84;5012878;28;20563;-67
2022/05/15 05:40:29;;;;;;;4.40;2.78;;;;;;;29.95;40.99;91209.16;5012842;28;20539;-65
2022/05/15 05:42:54;;;;;;;7.45;2.88;;;;;;;30.39;40.43;91212.63;5012860;28;20034;-65
2022/05/15 05:45:20;;;;;;;3.22;2.92;;;;;;;31.08;40.03;91205.19;5012948;28;20033;-65
2022/05/15 05:47:47;;;;;;;4.50;2.80;;;;;;;31.95;38.25;91204.63;5012835;28;20389;-65
2022/05/15 05:50:15;;;;;;;5.07;2.47;;;;;;;32.46;37.59;91197.31;5012559;28;20479;-65
2022/05/15 05:52:40;;;;;;;5.07;2.70;;;;;;;32.34;36.97;91201.56;5011300;28;20431;-65
2022/05/15 05:55:10;;;;;;;3.63;2.83;;;;;;;33.40;35.63;91210.59;5012607;28;20033;-65
2022/05/15 05:57:36;;;;;;;5.68;2.60;;;;;;;33.76;35.05;91212.16;5012809;28;20030;-65
2022/05/15 06:00:03;;;;;;;4.88;2.63;;;;;;;34.22;34.09;91207.81;5013112;28;20034;-65
2022/05/15 06:02:29;;;;;;;3.30;2.88;;;;;;;34.51;34.24;91211.09;5012654;28;20052;-65
2022/05/15 06:04:54;;;;;;;5.30;2.70;;;;;;;34.27;34.31;91206.47;5012297;28;20551;-65
2022/05/15 06:07:23;;;;;;;3.03;2.40;;;;;;;35.23;32.02;91206.41;5012361;28;20038;-65
2022/05/15 06:09:50;;;;;;;3.22;2.75;;;;;;;32.83;35.06;91206.09;5012424;28;20060;-65
2022/05/15 06:12:19;;;;;;;4.70;2.75;;;;;;;32.38;34.99;91196.75;5012305;28;20519;-65
2022/05/15 06:14:45;;;;;;;3.55;2.70;;;;;;;31.20;37.00;91201.03;5012172;28;20030;-65
2022/05/15 06:17:11;;;;;;;3.45;2.50;;;;;;;30.90;37.09;91210.34;5012241;28;20026;-65
2022/05/15 06:19:37;;;;;;;2.92;2.38;;;;;;;29.24;38.63;91202.22;5011393;28;20037;-64
2022/05/15 06:22:03;;;;;;;3.47;2.22;;;;;;;27.79;41.67;91194.09;5012086;28;20847;-65
2022/05/15 06:24:29;;;;;;;4.57;2.65;;;;;;;28.89;40.00;91200.84;5012097;28;20113;-65
2022/05/15 06:26:58;;;;;;;7.28;2.70;;;;;;;30.77;37.95;91201.22;5011995;28;20018;-65
2022/05/15 06:29:25;;;;;;;4.88;2.80;;;;;;;30.95;36.93;91188.66;5011995;28;20034;-65
2022/05/15 06:31:51;;;;;;;3.25;2.78;;;;;;;30.82;36.98;91201.50;5010630;28;20108;-65
2022/05/15 06:34:16;;;;;;;3.30;2.30;;;;;;;33.06;34.33;91195.50;5011583;28;20541;-65
2022/05/15 06:36:42;;;;;;;3.08;2.28;;;;;;;32.82;33.70;91194.28;5005471;28;20022;-65
2022/05/15 06:39:08;;;;;;;2.80;2.08;;;;;;;33.77;31.82;91189.66;5005652;28;20586;-65
2022/05/15 06:41:34;;;;;;;5.40;2.30;;;;;;;31.84;34.22;91191.94;5009909;28;20030;-67
2022/05/15 06:44:00;;;;;;;2.50;2.30;;;;;;;31.96;33.51;91190.44;5009746;28;20036;-66
2022/05/15 06:46:26;;;;;;;3.42;2.20;;;;;;;30.82;34.63;91189.75;5009836;28;20022;-66
2022/05/15 06:48:52;;;;;;;3.47;2.22;;;;;;;31.20;35.70;91193.56;5009548;28;20033;-66
2022/05/15 06:51:17;;;;;;;3.55;2.30;;;;;;;30.92;35.90;91192.22;4991195;28;20053;-65
2022/05/15 06:53:44;;;;;;;2.30;2.10;;;;;;;31.04;34.57;91182.53;4993116;28;20033;-65
2022/05/15 06:58:54;;;;;;;2.40;2.00;;;;;;;28.91;36.29;91187.50;4995680;28;20085;-65
2022/05/15 07:01:20;;;;;;;2.78;2.47;;;;;;;29.29;37.18;91179.03;4991901;28;20030;-64
2022/05/15 07:03:45;;;;;;;3.88;2.60;;;;;;;28.82;37.74;91181.75;5003017;28;20061;-66
2022/05/15 07:06:11;;;;;;;2.75;2.13;;;;;;;28.64;37.39;91173.81;5010390;28;20029;-66
2022/05/15 07:08:37;;;;;;;5.38;2.70;;;;;;;28.48;36.67;91187.34;5010582;28;20022;-66
2022/05/15 07:11:03;;;;;;;2.03;1.83;;;;;;;29.28;36.73;91177.50;5010920;28;20034;-67
2022/05/15 07:13:29;;;;;;;15.55;6.22;;;;;;;30.00;35.95;91186.75;5010945;28;20022;-67
2022/05/15 07:15:54;;;;;;;3.47;2.83;;;;;;;29.59;34.84;91181.66;5010746;28;20030;-67
2022/05/15 07:18:23;;;;;;;3.95;2.20;;;;;;;29.78;36.49;91182.84;5010794;28;20036;-65
2022/05/15 07:20:49;;;;;;;2.65;2.00;;;;;;;29.49;35.00;91179.88;5010753;28;20025;-67
2022/05/15 07:23:15;;;;;;;3.30;2.20;;;;;;;30.12;34.96;91179.84;5010710;28;20038;-66
2022/05/15 07:25:40;;;;;;;7.00;3.55;;;;;;;29.85;34.54;91180.00;5010759;28;20504;-65
2022/05/15 07:28:06;;;;;;;2.53;2.10;;;;;;;30.16;35.08;91177.81;5010902;28;20038;-65
2022/05/15 07:30:31;;;;;;;2.50;1.98;;;;;;;29.92;33.06;91168.09;5010917;28;20412;-66
2022/05/15 07:32:56;;;;;;;3.42;1.73;;;;;;;30.15;34.37;91184.50;5014756;28;20619;-67
2022/05/15 07:35:22;;;;;;;2.20;2.00;;;;;;;29.70;35.26;91174.00;5014882;28;20026;-66
2022/05/15 07:37:47;;;;;;;4.28;2.65;;;;;;;29.41;35.69;91181.94;5014395;28;20560;-67
2022/05/15 07:40:13;;;;;;;3.60;2.25;;;;;;;30.43;34.36;91185.88;5014858;28;20088;-67
2022/05/15 07:42:39;;;;;;;6.78;2.00;;;;;;;30.31;34.49;91181.06;5014869;28;20034;-66
2022/05/15 07:45:05;;;;;;;3.70;2.53;;;;;;;29.48;35.19;91162.66;5014764;28;20034;-66
2022/05/15 07:47:30;;;;;;;3.72;2.40;;;;;;;31.72;34.41;91175.34;5014787;28;20038;-67
2022/05/15 07:49:56;;;;;;;3.00;2.10;;;;;;;30.17;35.41;91170.38;5014494;28;20524;-69
2022/05/15 07:52:22;;;;;;;4.00;2.92;;;;;;;28.96;37.01;91170.59;5014347;28;20112;-69
2022/05/15 07:54:49;;;;;;;3.70;2.30;;;;;;;30.50;35.89;91171.22;5014541;28;20121;-69
2022/05/15 07:57:15;;;;;;;6.70;2.17;;;;;;;28.97;37.95;91174.88;5014483;28;20105;-68
2022/05/15 07:59:41;;;;;;;3.60;2.45;;;;;;;29.65;36.46;91173.69;5014546;28;20109;-67
2022/05/15 08:02:06;;;;;;;9.50;2.92;;;;;;;30.35;36.03;91176.25;5014527;28;20079;-68
2022/05/15 08:08:00;;;;;;;4.03;2.10;;;;;;;29.54;35.93;91173.94;5014365;28;20480;-68
2022/05/15 08:10:04;;;;;;;4.60;2.75;;;;;;;30.17;36.19;91175.84;5014338;28;20049;-67
2022/05/15 08:12:29;;;;;;;2.97;2.17;;;;;;;29.13;36.76;91175.00;5014245;28;20036;-68
2022/05/15 08:14:55;;;;;;;5.57;2.30;;;;;;;28.12;38.86;91181.56;5014214;28;20042;-69
2022/05/15 08:17:20;;;;;;;2.45;2.25;;;;;;;28.71;37.41;91184.63;5014330;28;20033;-69
2022/05/15 08:25:17;;;;;;;12.98;3.10;;;;;;;29.49;35.56;91166.94;5014098;28;20088;-70
2022/05/15 08:27:42;;;;;;;8.93;2.30;;;;;;;28.31;37.39;91189.91;5013750;28;20022;-68
2022/05/15 08:30:08;;;;;;;11.82;2.78;;;;;;;27.00;40.28;91194.84;5013926;28;20125;-69
2022/05/15 08:32:34;;;;;;;2.83;2.00;;;;;;;25.69;41.46;91196.34;5013772;28;20029;-68
2022/05/15 08:35:00;;;;;;;4.97;2.80;;;;;;;25.35;41.52;91191.38;5013588;28;20026;-68
2022/05/15 08:37:26;;;;;;;2.47;2.22;;;;;;;25.08;42.55;91192.97;5013298;28;20069;-68
2022/05/15 08:39:52;;;;;;;4.07;2.47;;;;;;;23.97;43.82;91194.78;5013716;28;20488;-67
2022/05/15 08:42:40;;;;;;;12.43;3.10;;;;;;;23.21;45.57;91184.75;5012935;28;20038;-67
2022/05/15 08:45:13;;;;;;;4.28;2.80;;;;;;;22.69;47.33;91202.19;5013586;28;20108;-68
2022/05/15 08:47:43;;;;;;;6.10;2.47;;;;;;;22.75;47.36;91200.72;5013779;28;20447;-68
2022/05/15 08:50:13;;;;;;;5.25;3.40;;;;;;;23.36;47.55;91204.63;5013004;28;20508;-69
2022/05/15 08:52:38;;;;;;;3.75;3.08;;;;;;;22.99;47.15;91212.91;5013569;28;20029;-68
2022/05/15 08:55:09;;;;;;;3.10;2.08;;;;;;;22.93;47.78;91204.34;5013478;28;20030;-67
2022/05/15 08:57:55;;;;;;;3.70;3.00;;;;;;;23.40;45.91;91197.25;5013368;28;20469;-69
2022/05/15 09:00:25;;;;;;;4.70;2.33;;;;;;;24.49;45.45;91203.47;5012255;28;20133;-67
2022/05/15 09:02:51;;;;;;;2.90;2.47;;;;;;;24.12;44.60;91201.03;5013373;28;20057;-67
2022/05/15 09:05:17;;;;;;;2.20;2.00;;;;;;;23.45;45.61;91204.25;5012893;28;20515;-67
2022/05/15 09:07:48;;;;;;;3.03;1.75;;;;;;;24.41;42.76;91216.28;5013367;28;20025;-67
2022/05/15 09:10:32;;;;;;;2.63;1.90;;;;;;;25.60;42.23;91204.94;5013270;28;20108;-67
2022/05/15 09:13:30;;;;;;;5.18;2.53;;;;;;;25.90;41.66;91207.19;5011975;28;20113;-64
2022/05/15 09:15:59;;;;;;;2.60;1.77;;;;;;;26.02;40.46;91210.63;5012928;28;20089;-63
2022/05/15 09:18:25;;;;;;;2.53;2.03;;;;;;;25.55;42.78;91204.53;5012969;28;20053;-64
2022/05/15 09:20:54;;;;;;;3.65;2.03;;;;;;;26.82;40.62;91202.34;5012688;28;20065;-64
2022/05/15 09:23:34;;;;;;;2.10;1.92;;;;;;;28.75;38.41;91201.81;5012976;28;20109;-64
2022/05/15 09:26:17;;;;;;;5.57;2.50;;;;;;;28.02;36.78;91196.91;5012824;28;20028;-65
2022/05/15 09:28:47;;;;;;;6.30;2.42;;;;;;;29.10;36.85;91196.97;5012866;28;20574;-65
2022/05/15 09:31:28;;;;;;;7.25;2.40;;;;;;;30.15;34.38;91194.72;5012942;28;20041;-65
2022/05/15 09:34:20;;;;;;;2.78;1.88;;;;;;;30.30;34.39;91196.75;5012843;28;20035;-64
2022/05/15 09:36:46;;;;;;;2.40;2.10;;;;;;;29.66;35.72;91195.22;5010754;28;20508;-62
2022/05/15 09:39:18;;;;;;;2.10;1.70;;;;;;;30.03;34.35;91196.88;5012615;28;20515;-62
2022/05/15 09:44:35;;;;;;;2.83;1.95;;;;;;;31.46;31.56;91185.47;5012743;28;20172;-62
2022/05/15 09:47:03;;;;;;;5.55;1.90;;;;;;;30.48;33.81;91196.38;5012482;28;20037;-62
2022/05/15 09:49:33;;;;;;;1.65;1.50;;;;;;;29.98;35.14;91197.38;5011741;28;20049;-62
2022/05/15 09:52:01;;;;;;;1.92;1.75;;;;;;;30.33;33.43;91200.59;5012457;28;20038;-63
2022/05/15 09:54:49;;;;;;;2.20;1.73;;;;;;;31.96;31.06;91186.91;5012102;28;20030;-64
2022/05/15 09:57:21;;;;;;;6.40;2.97;;;;;;;32.00;32.23;91193.09;5012371;28;20515;-68
2022/05/15 09:59:56;;;;;;;2.75;1.77;;;;;;;31.18;32.43;91187.72;5012471;28;20068;-68
2022/05/15 10:02:48;;;;;;;2.50;2.30;;;;;;;32.92;30.69;91186.91;5012345;28;20492;-67
2022/05/15 10:05:14;;;;;;;6.22;2.47;;;;;;;32.02;31.78;91193.41;5011754;28;20511;-67
2022/05/15 10:07:46;;;;;;;2.20;2.00;;;;;;;31.19;33.49;91183.75;5012354;28;20025;-67
2022/05/15 10:10:22;;;;;;;5.47;2.42;;;;;;;31.39;33.76;91188.38;5012181;28;20347;-66
2022/05/15 10:12:54;;;;;;;2.85;2.13;;;;;;;32.60;32.40;91191.38;5012333;28;20055;-66
2022/05/15 10:15:21;;;;;;;7.20;2.47;;;;;;;31.97;32.25;91185.69;5011948;28;20036;-66
2022/05/15 10:17:58;;;;;;;2.35;1.85;;;;;;;31.55;32.48;91182.84;5012056;28;20026;-67
2022/05/15 10:20:28;;;;;;;2.33;2.08;;;;;;;30.59;34.67;91185.13;5011701;28;20026;-66
2022/05/15 10:22:54;;;;;;;2.65;2.03;;;;;;;31.23;32.41;91180.91;5011975;28;20110;-66
2022/05/15 10:25:37;;;;;;;3.47;2.28;;;;;;;31.44;33.82;91168.63;5011917;28;20492;-66
2022/05/15 10:28:41;;;;;;;2.63;2.03;;;;;;;29.06;35.46;91177.09;5011759;28;20033;-67
2022/05/15 10:31:22;;;;;;;2.70;2.25;;;;;;;29.77;36.15;91179.34;5011830;28;20034;-67
2022/05/15 10:33:54;;;;;;;4.50;2.10;;;;;;;30.87;34.37;91173.50;5011767;28;20034;-71
2022/05/15 10:36:27;;;;;;;3.28;1.80;;;;;;;30.54;34.19;91177.41;5011397;28;20026;-68
2022/05/15 10:39:07;;;;;;;7.80;2.30;;;;;;;29.59;35.20;91181.66;5012110;28;20749;-69
2022/05/15 10:41:48;;;;;;;3.35;2.10;;;;;;;29.59;33.71;91170.69;5011715;28;20026;-69
2022/05/15 10:44:34;;;;;;;2.50;1.75;;;;;;;30.22;33.62;91178.88;5011881;28;20033;-69
2022/05/15 10:47:09;;;;;;;1.63;1.52;;;;;;;30.39;32.32;91183.19;5011777;28;20026;-69
2022/05/15 10:49:47;;;;;;;2.13;1.70;;;;;;;32.58;29.49;91177.28;5011444;28;20056;-69
2022/05/15 10:52:24;;;;;;;5.28;1.70;;;;;;;30.00;32.71;91172.25;5011691;28;20040;-69
2022/05/15 10:58:07;;;;;;;8.70;3.00;;;;;;;30.21;31.77;91177.31;5011611;28;20467;-69
2022/05/15 11:01:00;;;;;;;3.00;1.75;;;;;;;30.16;32.75;91169.59;5011325;28;20076;-69
2022/05/15 11:03:49;;;;;;;5.13;2.28;;;;;;;30.04;33.15;91165.53;5011586;28;20080;-69
2022/05/15 11:06:17;;;;;;;5.20;2.17;;;;;;;28.46;34.34;91167.81;5010740;28;20049;-69
2022/05/15 11:08:42;;;;;;;1.75;1.60;;;;;;;29.79;32.97;91167.94;5010026;28;20145;-69
2022/05/15 11:11:30;;;;;;;5.20;2.13;;;;;;;29.94;33.11;91171.19;5011419;28;20149;-69
2022/05/15 11:14:15;;;;;;;2.75;1.98;;;;;;;30.39;32.30;91169.47;5011446;28;20273;-69
2022/05/15 11:17:04;;;;;;;3.08;1.63;;;;;;;30.66;32.10;91161.06;5011296;28;20045;-69
2022/05/15 11:19:44;;;;;;;2.88;1.95;;;;;;;32.24;32.91;91161.34;5011382;28;20046;-69
2022/05/15 11:22:19;;;;;;;2.90;2.17;;;;;;;32.11;29.57;91160.53;5011368;28;20095;-69
2022/05/15 11:25:03;;;;;;;1.73;1.60;;;;;;;31.23;31.38;91153.44;5011094;28;20038;-68
2022/05/15 11:27:34;;;;;;;3.15;1.83;;;;;;;30.79;31.69;91155.66;5011186;28;20488;-68
2022/05/15 11:30:03;;;;;;;2.13;1.92;;;;;;;30.07;32.75;91155.66;5011164;28;20042;-68
2022/05/15 11:32:58;;;;;;;18.02;5.03;;;;;;;29.54;33.89;91151.22;5009987;28;20037;-68
2022/05/15 11:35:35;;;;;;;2.13;1.50;;;;;;;30.21;30.71;91143.63;5011550;28;20041;-69
2022/05/15 11:38:11;;;;;;;2.92;1.90;;;;;;;30.05;31.28;91153.34;4991566;28;20121;-70
2022/05/15 11:40:49;;;;;;;2.30;1.77;;;;;;;29.22;30.87;91147.06;5007539;28;20045;-69
2022/05/15 11:43:26;;;;;;;4.32;1.98;;;;;;;28.40;34.25;91147.56;5009541;28;20116;-69
2022/05/15 11:46:12;;;;;;;4.35;2.00;;;;;;;29.12;31.53;91142.53;5010642;28;20044;-69
2022/05/15 11:48:43;;;;;;;1.90;1.70;;;;;;;30.33;30.50;91145.72;5007711;28;20057;-69
2022/05/15 11:51:14;;;;;;;3.42;1.70;;;;;;;29.62;29.99;91136.16;5010459;28;20050;-69
2022/05/15 11:54:00;;;;;;;1.73;1.60;;;;;;;30.16;31.12;91144.13;5010661;28;20041;-70
2022/05/15 11:56:46;;;;;;;7.88;2.75;;;;;;;28.57;33.35;91141.84;5009769;28;20415;-69